Manawa, Iowa
Current Conditions -  °F | °C
As of 11:15 AM on Thursday 27 Nov 2014 (Local Time) from KCBF Reporting Station
Overcast Overcast  
Wind Chill:   Ceiling: 4300
Heat Index: 16°   Visibility: 10mi
Dew Point: -2°   Wind: 5mph
Humidity: 45%   Direction: 140°SE
Pressure: 30.51"   Gusts: NA
Location:  41.2146°N, 95.8574°W
Report Text: KCBF 271715Z AUTO 14004KT 10SM OVC043 M09/M19 A3051 RMK AO2
Loading
Personal Weather Stations






























Interactive Weather Map New forecast layout! Learn more

10-Day Weather Forecast

Advertisements
Track Severe Weather on mobile